createdAt,value
2019-02-05T00:00:59.022Z,1.76
2019-02-05T00:03:29.947Z,1.73
2019-02-05T00:06:01.042Z,1.69
2019-02-05T00:08:32.495Z,1.69
2019-02-05T00:11:03.760Z,1.74
2019-02-05T00:13:34.779Z,1.71
2019-02-05T00:16:06.007Z,1.70
2019-02-05T00:18:37.080Z,1.62
2019-02-05T00:21:08.215Z,1.71
2019-02-05T00:23:40.379Z,1.72
2019-02-05T00:26:11.296Z,1.69
2019-02-05T00:28:43.116Z,1.67
2019-02-05T00:31:13.949Z,1.63
2019-02-05T00:33:45.053Z,1.72
2019-02-05T00:36:16.221Z,1.81
2019-02-05T00:38:46.993Z,1.81
2019-02-05T00:41:17.825Z,1.76
2019-02-05T00:43:48.829Z,1.69
2019-02-05T00:46:19.660Z,1.76
2019-02-05T00:48:50.795Z,1.81
2019-02-05T00:51:21.775Z,1.78
2019-02-05T00:53:52.557Z,1.95
2019-02-05T00:56:23.569Z,1.82
2019-02-05T00:58:54.570Z,1.74
2019-02-05T01:01:25.647Z,1.82
2019-02-05T01:03:56.785Z,1.72
2019-02-05T01:06:27.894Z,1.63
2019-02-05T01:08:59.551Z,1.66
2019-02-05T01:11:30.694Z,1.64
2019-02-05T01:14:01.477Z,1.65
2019-02-05T01:16:32.599Z,1.64
2019-02-05T01:19:03.739Z,1.68
2019-02-05T01:21:34.493Z,1.63
2019-02-05T01:24:05.727Z,1.66
2019-02-05T01:26:36.492Z,1.56
2019-02-05T01:29:07.576Z,1.60
2019-02-05T01:31:38.547Z,1.52
2019-02-05T01:34:09.647Z,1.47
2019-02-05T01:36:40.677Z,1.43
2019-02-05T01:39:11.644Z,1.29
2019-02-05T01:41:42.549Z,1.28
2019-02-05T01:44:13.835Z,1.16
2019-02-05T01:46:44.590Z,1.06
2019-02-05T01:49:15.665Z,0.96
2019-02-05T01:51:46.647Z,0.81
2019-02-05T01:54:17.609Z,0.82
2019-02-05T01:56:48.836Z,0.73
2019-02-05T01:59:19.718Z,0.65
2019-02-05T02:01:50.562Z,0.70
2019-02-05T02:04:21.747Z,0.67
2019-02-05T02:06:53.960Z,0.65
2019-02-05T02:09:24.739Z,0.55
2019-02-05T02:11:55.899Z,0.42
2019-02-05T02:14:26.790Z,0.28
2019-02-05T02:16:58.036Z,0.21
2019-02-05T02:19:29.449Z,0.43
2019-02-05T02:22:00.298Z,0.38
2019-02-05T02:24:31.143Z,0.50
2019-02-05T02:27:02.376Z,0.28
2019-02-05T02:29:34.537Z,0.41
2019-02-05T02:32:05.552Z,0.36
2019-02-05T02:34:36.663Z,0.32
2019-02-05T02:37:07.882Z,0.20
2019-02-05T02:39:39.932Z,0.20
2019-02-05T02:42:11.114Z,0.11
2019-02-05T02:44:41.961Z,0.12
2019-02-05T02:47:12.716Z,0.38
2019-02-05T02:49:43.493Z,0.29
2019-02-05T02:52:14.477Z,0.33
2019-02-05T02:54:45.248Z,0.37
2019-02-05T02:57:16.344Z,0.62
2019-02-05T02:59:47.199Z,0.34
2019-02-05T03:02:18.256Z,0.37
2019-02-05T03:04:49.423Z,0.95
2019-02-05T03:07:20.512Z,0.73
2019-02-05T03:09:51.293Z,0.61
2019-02-05T03:12:22.361Z,0.79
2019-02-05T03:14:53.258Z,0.55
2019-02-05T03:17:24.201Z,0.83
2019-02-05T03:19:55.462Z,0.82
2019-02-05T03:22:26.798Z,0.65
2019-02-05T03:24:57.610Z,0.78
2019-02-05T03:27:28.686Z,0.65
2019-02-05T03:29:59.960Z,0.89
2019-02-05T03:32:31.052Z,0.88
2019-02-05T03:35:02.115Z,0.90
2019-02-05T03:37:32.898Z,1.32
2019-02-05T03:40:04.439Z,1.17
2019-02-05T03:42:36.700Z,1.10
2019-02-05T03:45:08.055Z,0.84
2019-02-05T03:47:39.375Z,0.86
2019-02-05T03:50:10.303Z,1.09
2019-02-05T03:52:46.776Z,0.90
2019-02-05T03:55:49.804Z,0.65
2019-02-05T03:58:57.434Z,0.90
2019-02-05T04:01:54.893Z,0.75
2019-02-05T04:04:53.545Z,0.64
2019-02-05T04:08:01.216Z,0.36
2019-02-05T04:11:26.788Z,0.17
2019-02-05T04:14:36.193Z,0.07
2019-02-05T04:18:02.586Z,-0.22
2019-02-05T04:20:56.675Z,-0.30
2019-02-05T04:23:59.301Z,-0.41
2019-02-05T04:26:50.134Z,-0.37
2019-02-05T04:29:54.464Z,-0.34
2019-02-05T04:32:41.714Z,-0.31
2019-02-05T04:35:50.369Z,-0.05
2019-02-05T04:38:49.886Z,-0.22
2019-02-05T04:41:52.186Z,-0.29
2019-02-05T04:45:09.094Z,-0.38
2019-02-05T04:48:36.210Z,-0.45
2019-02-05T04:51:49.138Z,-0.47
2019-02-05T04:55:06.441Z,-0.51
2019-02-05T04:58:01.617Z,-0.46
2019-02-05T05:01:02.924Z,-0.34
2019-02-05T05:03:59.810Z,-0.29
2019-02-05T05:07:08.341Z,-0.42
2019-02-05T05:09:57.117Z,-0.53
2019-02-05T05:12:29.423Z,-0.10
2019-02-05T05:15:00.792Z,-0.08
2019-02-05T05:17:32.917Z,-0.02
2019-02-05T05:20:04.018Z,-0.06
2019-02-05T05:22:35.532Z,-0.17
2019-02-05T05:25:08.290Z,-0.21
2019-02-05T05:27:39.451Z,-0.12
2019-02-05T05:30:14.395Z,-0.30
2019-02-05T05:32:45.156Z,-0.09
2019-02-05T05:35:16.268Z,0.21
2019-02-05T05:37:47.370Z,0.04
2019-02-05T05:40:18.517Z,0.26
2019-02-05T05:42:49.475Z,0.21
2019-02-05T05:45:20.354Z,0.13
2019-02-05T05:47:51.186Z,0.06
2019-02-05T05:50:21.978Z,0.27
2019-02-05T05:52:53.261Z,0.39
2019-02-05T05:55:24.124Z,0.32
2019-02-05T05:57:55.132Z,0.10
2019-02-05T06:00:26.326Z,0.04
2019-02-05T06:02:57.660Z,-0.19
2019-02-05T06:05:28.562Z,-0.34
2019-02-05T06:07:59.917Z,-0.40
2019-02-05T06:10:30.701Z,-0.52
2019-02-05T06:13:01.993Z,-0.60
2019-02-05T06:15:35.750Z,-0.60
2019-02-05T06:18:05.524Z,-0.69
2019-02-05T06:20:36.993Z,-0.75
2019-02-05T06:23:08.015Z,-0.56
2019-02-05T06:25:38.804Z,-0.53
2019-02-05T06:28:09.833Z,-0.69
2019-02-05T06:30:40.995Z,-0.71
2019-02-05T06:33:12.138Z,-0.74
2019-02-05T06:35:43.255Z,-0.81
2019-02-05T06:38:14.422Z,-0.91
2019-02-05T06:40:45.774Z,-0.97
2019-02-05T06:43:16.922Z,-0.96
2019-02-05T06:45:48.436Z,-0.98
2019-02-05T06:48:19.617Z,-0.89
2019-02-05T06:50:50.703Z,-0.79
2019-02-05T06:53:21.715Z,-0.93
2019-02-05T06:55:52.865Z,-0.91
2019-02-05T06:58:23.942Z,-0.94
2019-02-05T07:00:54.978Z,-0.93
2019-02-05T07:03:26.181Z,-0.91
2019-02-05T07:05:57.086Z,-0.86
2019-02-05T07:08:28.276Z,-0.75
2019-02-05T07:10:59.719Z,-0.64
2019-02-05T07:13:30.725Z,-0.56
2019-02-05T07:16:02.321Z,-0.44
2019-02-05T07:18:33.089Z,-0.26
2019-02-05T07:21:04.911Z,-0.01
2019-02-05T07:23:35.974Z,0.14
2019-02-05T07:26:06.956Z,0.27
2019-02-05T07:28:37.957Z,0.45
2019-02-05T07:31:08.978Z,0.75
2019-02-05T07:33:40.128Z,0.84
2019-02-05T07:36:10.989Z,1.09
2019-02-05T07:38:41.881Z,1.16
2019-02-05T07:41:12.846Z,1.29
2019-02-05T07:43:43.833Z,1.61
2019-02-05T07:46:15.273Z,1.61
2019-02-05T07:48:46.043Z,1.73
2019-02-05T07:51:17.194Z,1.84
2019-02-05T07:53:48.029Z,1.81
2019-02-05T07:56:19.107Z,1.93
2019-02-05T07:58:50.156Z,1.91
2019-02-05T08:01:21.176Z,1.95
2019-02-05T08:03:52.277Z,1.95
2019-02-05T08:06:23.356Z,2.16
2019-02-05T08:08:54.494Z,2.22
2019-02-05T08:11:25.577Z,2.21
2019-02-05T08:13:56.430Z,2.26
2019-02-05T08:16:27.445Z,2.22
2019-02-05T08:18:58.488Z,2.12
2019-02-05T08:21:29.585Z,2.23
2019-02-05T08:24:00.926Z,2.32
2019-02-05T08:26:31.711Z,2.29
2019-02-05T08:29:02.775Z,2.21
2019-02-05T08:31:34.164Z,2.29
2019-02-05T08:34:05.001Z,2.32
2019-02-05T08:36:35.782Z,2.50
2019-02-05T08:39:08.989Z,2.52
2019-02-05T08:41:41.268Z,2.73
2019-02-05T08:44:12.218Z,2.68
2019-02-05T08:46:43.283Z,2.78
2019-02-05T08:49:14.420Z,2.92
2019-02-05T08:51:45.485Z,2.97
2019-02-05T08:54:16.564Z,3.00
2019-02-05T08:56:47.401Z,3.04
2019-02-05T08:59:18.930Z,2.94
2019-02-05T09:01:50.259Z,3.00
2019-02-05T09:04:21.360Z,3.08
2019-02-05T09:06:52.288Z,3.07
2019-02-05T09:09:23.046Z,3.07
2019-02-05T09:11:53.966Z,3.19
2019-02-05T09:14:25.046Z,3.19
2019-02-05T09:16:55.937Z,3.28
2019-02-05T09:19:26.996Z,3.33
2019-02-05T09:21:57.852Z,3.40
2019-02-05T09:24:28.793Z,3.39
2019-02-05T09:26:59.998Z,3.56
2019-02-05T09:29:33.421Z,3.47
2019-02-05T09:32:04.290Z,3.46
2019-02-05T09:34:35.115Z,3.56
2019-02-05T09:37:06.400Z,3.53
2019-02-05T09:39:37.182Z,3.62
2019-02-05T09:42:08.404Z,3.69
2019-02-05T09:44:39.259Z,3.73
2019-02-05T09:47:10.569Z,3.82
2019-02-05T09:49:41.509Z,3.87
2019-02-05T09:52:12.371Z,3.75
2019-02-05T09:54:43.335Z,3.74
2019-02-05T09:57:14.567Z,3.85
2019-02-05T09:59:45.851Z,3.78
2019-02-05T10:02:16.983Z,3.88
2019-02-05T10:04:47.827Z,4.11
2019-02-05T10:07:18.608Z,4.29
2019-02-05T10:09:49.467Z,4.23
2019-02-05T10:12:20.213Z,4.24
2019-02-05T10:14:51.278Z,4.32
2019-02-05T10:17:23.259Z,4.48
2019-02-05T10:19:54.526Z,4.37
2019-02-05T10:22:25.608Z,4.34
2019-02-05T10:24:57.161Z,4.46
2019-02-05T10:27:28.369Z,4.44
2019-02-05T10:29:59.635Z,4.42
2019-02-05T10:32:30.440Z,4.36
2019-02-05T10:35:01.198Z,4.34
2019-02-05T10:37:32.062Z,4.49
2019-02-05T10:40:03.162Z,4.55
2019-02-05T10:42:34.171Z,4.60
2019-02-05T10:45:06.337Z,4.55
2019-02-05T10:47:37.429Z,4.66
2019-02-05T10:50:09.857Z,4.77
2019-02-05T10:52:42.063Z,4.74
2019-02-05T10:55:13.993Z,4.74
2019-02-05T10:57:45.115Z,4.78
2019-02-05T11:00:25.341Z,4.92
2019-02-05T11:02:57.692Z,4.90
2019-02-05T11:05:30.077Z,4.89
2019-02-05T11:08:01.129Z,4.95
2019-02-05T11:10:32.889Z,5.01
2019-02-05T11:13:04.465Z,5.13
2019-02-05T11:15:35.682Z,5.14
2019-02-05T11:18:08.954Z,5.29
2019-02-05T11:20:41.015Z,5.20
2019-02-05T11:23:12.117Z,5.19
2019-02-05T11:25:43.031Z,5.26
2019-02-05T11:28:13.811Z,5.48
2019-02-05T11:30:45.457Z,5.29
2019-02-05T11:33:16.604Z,5.19
2019-02-05T11:35:47.447Z,5.10
2019-02-05T11:38:18.563Z,5.32
2019-02-05T11:40:49.405Z,5.36
2019-02-05T11:43:20.497Z,5.71
2019-02-05T11:45:51.333Z,5.80
2019-02-05T11:48:22.272Z,5.90
2019-02-05T11:50:53.115Z,6.04
2019-02-05T11:53:23.966Z,5.96
2019-02-05T11:55:55.225Z,5.89
2019-02-05T11:58:26.188Z,6.01
2019-02-05T12:01:05.694Z,6.02
2019-02-05T12:03:37.173Z,6.03
2019-02-05T12:06:08.546Z,6.07
2019-02-05T12:08:39.445Z,6.07
2019-02-05T12:11:10.322Z,5.95
2019-02-05T12:13:41.246Z,6.00
2019-02-05T12:16:12.096Z,6.09
2019-02-05T12:18:42.990Z,6.16
2019-02-05T12:21:14.056Z,6.19
2019-02-05T12:23:45.067Z,6.25
2019-02-05T12:26:15.992Z,6.39
2019-02-05T12:28:46.939Z,6.51
2019-02-05T12:31:18.183Z,6.54
2019-02-05T12:33:50.254Z,6.45
2019-02-05T12:36:21.061Z,6.37
2019-02-05T12:38:51.920Z,6.49
2019-02-05T12:41:23.002Z,6.54
2019-02-05T12:43:54.053Z,6.39
2019-02-05T12:46:24.906Z,6.62
2019-02-05T12:48:55.690Z,6.76
2019-02-05T12:51:26.825Z,6.67
2019-02-05T12:53:57.921Z,6.85
2019-02-05T12:56:29.297Z,6.92
2019-02-05T12:59:00.084Z,6.96
2019-02-05T13:01:31.149Z,6.96
2019-02-05T13:04:02.081Z,7.03
2019-02-05T13:06:32.993Z,7.05
2019-02-05T13:09:05.814Z,7.11
2019-02-05T13:11:38.478Z,6.93
2019-02-05T13:14:09.534Z,6.88
2019-02-05T13:16:41.005Z,6.94
2019-02-05T13:19:11.709Z,6.99
2019-02-05T13:21:42.700Z,7.04
2019-02-05T13:24:16.574Z,7.09
2019-02-05T13:26:46.145Z,6.94
2019-02-05T13:29:16.929Z,6.82
2019-02-05T13:31:47.996Z,6.81
2019-02-05T13:34:19.393Z,6.87
2019-02-05T13:36:50.546Z,6.76
2019-02-05T13:39:21.491Z,6.79
2019-02-05T13:41:52.387Z,6.80
2019-02-05T13:44:23.241Z,6.90
2019-02-05T13:46:54.076Z,7.20
2019-02-05T13:49:25.346Z,6.89
2019-02-05T13:51:56.120Z,6.94
2019-02-05T13:54:27.277Z,7.13
2019-02-05T13:56:58.246Z,7.14
2019-02-05T13:59:29.065Z,7.22
2019-02-05T14:02:00.331Z,7.46
2019-02-05T14:04:31.518Z,7.34
2019-02-05T14:07:02.465Z,7.31
2019-02-05T14:09:33.245Z,7.13
2019-02-05T14:12:04.089Z,7.18
2019-02-05T14:14:35.117Z,7.22
2019-02-05T14:17:06.333Z,7.29
2019-02-05T14:19:37.262Z,7.16
2019-02-05T14:22:08.183Z,7.24
2019-02-05T14:24:39.299Z,7.30
2019-02-05T14:27:10.413Z,7.37
2019-02-05T14:29:41.466Z,7.38
2019-02-05T14:32:12.347Z,7.58
2019-02-05T14:34:43.217Z,7.68
2019-02-05T14:37:15.037Z,7.87
2019-02-05T14:39:48.877Z,7.78
2019-02-05T14:42:18.554Z,7.97
2019-02-05T14:44:49.661Z,7.99
2019-02-05T14:47:20.520Z,7.68
2019-02-05T14:49:51.531Z,7.65
2019-02-05T14:52:22.396Z,7.75
2019-02-05T14:54:55.085Z,7.70
2019-02-05T14:57:25.860Z,7.74
2019-02-05T14:59:57.369Z,7.75
2019-02-05T15:02:28.452Z,7.77
2019-02-05T15:04:59.552Z,7.70
2019-02-05T15:07:30.696Z,7.61
2019-02-05T15:10:01.483Z,7.62
2019-02-05T15:12:32.837Z,7.53
2019-02-05T15:15:04.538Z,7.47
2019-02-05T15:17:37.355Z,7.40
2019-02-05T15:20:13.011Z,7.25
2019-02-05T15:22:44.097Z,7.24
2019-02-05T15:25:14.953Z,7.15
2019-02-05T15:27:45.940Z,7.09
2019-02-05T15:30:23.262Z,6.97
2019-02-05T15:33:18.966Z,6.88
2019-02-05T15:35:53.161Z,6.88
2019-02-05T15:38:24.238Z,6.91
2019-02-05T15:40:55.110Z,6.88
2019-02-05T15:43:25.873Z,6.77
2019-02-05T15:45:56.903Z,6.85
2019-02-05T15:48:27.776Z,6.72
2019-02-05T15:50:58.857Z,6.60
2019-02-05T15:53:32.648Z,6.52
2019-02-05T15:56:04.004Z,6.56
2019-02-05T15:58:34.869Z,6.62
2019-02-05T16:01:06.492Z,6.61
2019-02-05T16:03:37.375Z,6.65
2019-02-05T16:06:08.323Z,6.61
2019-02-05T16:08:39.441Z,6.41
2019-02-05T16:11:10.582Z,6.43
2019-02-05T16:13:41.542Z,6.39
2019-02-05T16:16:12.611Z,6.37
2019-02-05T16:18:45.740Z,6.30
2019-02-05T16:21:16.793Z,6.28
2019-02-05T16:23:48.535Z,6.24
2019-02-05T16:26:19.551Z,6.25
2019-02-05T16:28:50.325Z,6.23
2019-02-05T16:31:21.240Z,6.12
2019-02-05T16:33:52.720Z,6.10
2019-02-05T16:36:23.588Z,5.99
2019-02-05T16:38:54.436Z,5.91
2019-02-05T16:41:25.754Z,5.83
2019-02-05T16:43:56.512Z,5.76
2019-02-05T16:46:27.448Z,5.79
2019-02-05T16:48:58.442Z,5.71
2019-02-05T16:51:29.706Z,5.66
2019-02-05T16:54:00.557Z,5.66
2019-02-05T16:56:31.332Z,5.62
2019-02-05T16:59:02.730Z,5.58
2019-02-05T17:01:33.772Z,5.52
2019-02-05T17:04:05.126Z,5.47
2019-02-05T17:06:36.210Z,5.37
2019-02-05T17:09:14.326Z,5.37
2019-02-05T17:11:45.500Z,5.39
2019-02-05T17:14:16.366Z,5.37
2019-02-05T17:16:47.377Z,5.35
2019-02-05T17:19:18.189Z,5.26
2019-02-05T17:21:48.988Z,5.16
2019-02-05T17:24:20.061Z,5.10
2019-02-05T17:26:51.162Z,5.08
2019-02-05T17:29:21.940Z,5.03
2019-02-05T17:31:53.037Z,5.03
2019-02-05T17:34:23.878Z,5.03
2019-02-05T17:36:55.690Z,5.02
2019-02-05T17:39:26.556Z,5.02
2019-02-05T17:41:57.720Z,4.99
2019-02-05T17:44:29.172Z,4.94
2019-02-05T17:47:00.309Z,4.86
2019-02-05T17:49:31.323Z,4.82
2019-02-05T17:52:02.192Z,4.86
2019-02-05T17:54:33.315Z,4.82
2019-02-05T17:57:04.174Z,4.82
2019-02-05T17:59:35.161Z,4.78
2019-02-05T18:02:06.022Z,4.75
2019-02-05T18:04:37.162Z,4.79
2019-02-05T18:07:08.342Z,4.78
2019-02-05T18:09:39.510Z,4.82
2019-02-05T18:12:10.642Z,4.79
2019-02-05T18:14:41.511Z,4.81
2019-02-05T18:17:12.576Z,4.85
2019-02-05T18:19:43.469Z,4.87
2019-02-05T18:22:14.457Z,4.91
2019-02-05T18:24:45.533Z,4.91
2019-02-05T18:27:16.636Z,4.94
2019-02-05T18:29:48.033Z,4.95
2019-02-05T18:32:19.257Z,4.98
2019-02-05T18:34:50.032Z,5.01
2019-02-05T18:37:20.920Z,4.98
2019-02-05T18:39:52.403Z,5.00
2019-02-05T18:42:23.758Z,5.01
2019-02-05T18:44:54.641Z,4.94
2019-02-05T18:47:25.747Z,4.83
2019-02-05T18:49:56.736Z,4.86
2019-02-05T18:52:28.074Z,4.87
2019-02-05T18:54:59.142Z,4.83
2019-02-05T18:57:30.453Z,4.78
2019-02-05T19:00:01.375Z,4.73
2019-02-05T19:02:34.162Z,4.69
2019-02-05T19:05:05.724Z,4.79
2019-02-05T19:07:36.581Z,4.74
2019-02-05T19:10:08.239Z,4.75
2019-02-05T19:12:39.627Z,4.67
2019-02-05T19:15:15.923Z,4.71
2019-02-05T19:17:46.806Z,4.69
2019-02-05T19:20:17.751Z,4.78
2019-02-05T19:22:48.778Z,4.82
2019-02-05T19:25:27.045Z,4.81
2019-02-05T19:27:58.070Z,4.84
2019-02-05T19:30:30.333Z,4.82
2019-02-05T19:33:01.432Z,4.74
2019-02-05T19:35:33.746Z,4.74
2019-02-05T19:38:05.121Z,4.76
2019-02-05T19:40:36.678Z,4.77
2019-02-05T19:43:07.849Z,4.69
2019-02-05T19:45:51.375Z,4.69
2019-02-05T19:48:30.814Z,4.67
2019-02-05T19:51:02.281Z,4.58
2019-02-05T19:53:33.182Z,4.62
2019-02-05T19:56:04.518Z,4.62
2019-02-05T19:58:35.792Z,4.57
2019-02-05T20:01:06.856Z,4.50
2019-02-05T20:03:39.013Z,4.54
2019-02-05T20:06:10.213Z,4.58
2019-02-05T20:08:41.083Z,4.55
2019-02-05T20:11:12.191Z,4.56
2019-02-05T20:13:43.266Z,4.57
2019-02-05T20:16:14.399Z,4.67
2019-02-05T20:18:45.332Z,4.66
2019-02-05T20:21:16.414Z,4.59
2019-02-05T20:23:47.672Z,4.53
2019-02-05T20:26:18.928Z,4.50
2019-02-05T20:28:50.210Z,4.47
2019-02-05T20:31:21.300Z,4.40
2019-02-05T20:33:52.088Z,4.30
2019-02-05T20:36:23.169Z,4.30
2019-02-05T20:38:54.450Z,4.31
2019-02-05T20:41:25.330Z,4.23
2019-02-05T20:43:56.424Z,4.11
2019-02-05T20:46:27.408Z,4.02
2019-02-05T20:48:58.213Z,3.92
2019-02-05T20:51:28.976Z,3.60
2019-02-05T20:53:59.853Z,3.44
2019-02-05T20:56:31.437Z,3.13
2019-02-05T20:59:02.520Z,3.00
2019-02-05T21:01:33.375Z,2.85
2019-02-05T21:04:04.513Z,2.67
2019-02-05T21:06:35.370Z,2.34
2019-02-05T21:09:15.905Z,2.11
2019-02-05T21:11:47.050Z,1.97
2019-02-05T21:14:18.140Z,1.93
2019-02-05T21:16:49.213Z,1.76
2019-02-05T21:19:20.050Z,1.72
2019-02-05T21:21:51.341Z,1.69
2019-02-05T21:24:22.397Z,1.48
2019-02-05T21:26:53.461Z,1.39
2019-02-05T21:29:24.869Z,1.26
2019-02-05T21:31:55.650Z,1.20
2019-02-05T21:34:26.439Z,1.15
2019-02-05T21:36:57.897Z,1.23
2019-02-05T21:39:28.872Z,1.14
2019-02-05T21:41:59.870Z,1.07
2019-02-05T21:44:31.211Z,1.11
2019-02-05T21:47:02.002Z,0.93
2019-02-05T21:49:34.365Z,0.93
2019-02-05T21:52:05.485Z,0.86
2019-02-05T21:54:36.577Z,0.81
2019-02-05T21:57:07.597Z,0.80
2019-02-05T21:59:38.893Z,0.71
2019-02-05T22:02:09.730Z,0.63
2019-02-05T22:04:40.546Z,0.55
2019-02-05T22:07:11.970Z,0.49
2019-02-05T22:09:43.074Z,0.66
2019-02-05T22:12:14.465Z,0.72
2019-02-05T22:14:45.723Z,0.59
2019-02-05T22:17:18.351Z,0.53
2019-02-05T22:19:49.249Z,0.67
2019-02-05T22:22:20.220Z,0.76
2019-02-05T22:24:51.025Z,0.73
2019-02-05T22:27:22.485Z,0.83
2019-02-05T22:29:53.994Z,0.69
2019-02-05T22:32:25.226Z,0.59
2019-02-05T22:34:56.012Z,0.50
2019-02-05T22:37:26.998Z,0.45
2019-02-05T22:39:58.004Z,0.61
2019-02-05T22:42:28.770Z,0.62
2019-02-05T22:45:00.133Z,0.69
2019-02-05T22:47:30.939Z,0.56
2019-02-05T22:50:02.003Z,0.77
2019-02-05T22:52:33.983Z,0.87
2019-02-05T22:55:05.673Z,1.05
2019-02-05T22:57:36.793Z,1.18
2019-02-05T23:00:16.825Z,1.18
2019-02-05T23:02:48.633Z,0.96
2019-02-05T23:05:42.783Z,0.71
2019-02-05T23:08:13.858Z,0.63
2019-02-05T23:11:12.364Z,0.49
2019-02-05T23:13:43.434Z,0.41
2019-02-05T23:16:15.546Z,0.32
2019-02-05T23:18:46.309Z,0.31
2019-02-05T23:21:17.404Z,0.26
2019-02-05T23:23:48.402Z,0.37
2019-02-05T23:26:23.856Z,0.32
2019-02-05T23:28:53.370Z,0.27
2019-02-05T23:31:24.470Z,0.30
2019-02-05T23:33:55.220Z,0.37
2019-02-05T23:36:26.386Z,0.50
2019-02-05T23:38:57.630Z,0.47
2019-02-05T23:41:28.774Z,0.43
2019-02-05T23:43:59.545Z,0.42
2019-02-05T23:46:30.409Z,0.45
2019-02-05T23:49:01.269Z,0.40
2019-02-05T23:51:32.052Z,0.27
2019-02-05T23:54:02.825Z,0.30
2019-02-05T23:56:33.957Z,0.13
2019-02-05T23:59:04.953Z,0.11
